createdAt,value
2023-04-25T00:00:47.669Z,96776.19
2023-04-25T00:03:16.150Z,96799.19
2023-04-25T00:05:45.246Z,96794.94
2023-04-25T00:08:13.447Z,96790.81
2023-04-25T00:10:43.130Z,96788.91
2023-04-25T00:13:12.539Z,96763.50
2023-04-25T00:15:42.822Z,96766.81
2023-04-25T00:18:12.336Z,96455.13
2023-04-25T00:20:40.513Z,96756.75
2023-04-25T00:23:08.851Z,96772.97
2023-04-25T00:25:37.021Z,96780.81
2023-04-25T00:28:06.619Z,96773.06
2023-04-25T00:30:34.795Z,96774.09
2023-04-25T00:33:03.005Z,96780.13
2023-04-25T00:35:31.168Z,96773.44
2023-04-25T00:37:59.335Z,96769.13
2023-04-25T00:40:27.515Z,96780.13
2023-04-25T00:42:56.161Z,96741.81
2023-04-25T00:45:30.501Z,96718.59
2023-04-25T00:47:58.854Z,96770.56
2023-04-25T00:50:27.344Z,96772.34
2023-04-25T00:52:56.190Z,96777.34
2023-04-25T00:55:24.587Z,96773.97
2023-04-25T00:57:52.712Z,96773.25
2023-04-25T01:00:21.966Z,96746.97
2023-04-25T01:02:52.376Z,96777.66
2023-04-25T01:05:20.831Z,96743.50
2023-04-25T01:07:49.482Z,96721.50
2023-04-25T01:10:17.705Z,96764.84
2023-04-25T01:12:45.800Z,96767.41
2023-04-25T01:15:13.887Z,96754.59
2023-04-25T01:17:43.958Z,96754.50
2023-04-25T01:20:14.417Z,96764.13
2023-04-25T01:22:44.328Z,96691.06
2023-04-25T01:25:12.721Z,96743.66
2023-04-25T01:27:41.333Z,96782.34
2023-04-25T01:30:10.647Z,96771.09
2023-04-25T01:32:40.399Z,96774.88
2023-04-25T01:35:10.741Z,96763.59
2023-04-25T01:37:39.167Z,96771.50
2023-04-25T01:40:10.512Z,96777.09
2023-04-25T01:42:44.222Z,96783.41
2023-04-25T01:45:13.543Z,96765.19
2023-04-25T01:47:44.055Z,96764.69
2023-04-25T01:50:13.376Z,96789.56
2023-04-25T01:52:41.570Z,96777.69
2023-04-25T01:55:11.899Z,96787.25
2023-04-25T01:57:40.035Z,96773.19
2023-04-25T02:00:10.114Z,96774.78
2023-04-25T02:02:38.621Z,96760.06
2023-04-25T02:05:07.774Z,96778.16
2023-04-25T02:07:35.860Z,96782.25
2023-04-25T02:10:04.091Z,96781.75
2023-04-25T02:12:33.797Z,96780.22
2023-04-25T02:15:01.914Z,96785.22
2023-04-25T02:17:30.169Z,96778.22
2023-04-25T02:19:58.288Z,96787.69
2023-04-25T02:22:27.581Z,96791.28
2023-04-25T02:24:57.071Z,96790.91
2023-04-25T02:27:25.215Z,96799.03
2023-04-25T02:29:54.766Z,96803.03
2023-04-25T02:32:22.922Z,96803.63
2023-04-25T02:34:51.037Z,96813.41
2023-04-25T02:37:19.117Z,96808.75
2023-04-25T02:39:47.326Z,96806.09
2023-04-25T02:42:15.572Z,96807.25
2023-04-25T02:44:43.777Z,96808.41
2023-04-25T02:47:13.352Z,96786.16
2023-04-25T02:49:41.525Z,96799.34
2023-04-25T02:52:09.844Z,96796.97
2023-04-25T02:54:38.039Z,96790.94
2023-04-25T02:57:06.321Z,96799.53
2023-04-25T02:59:34.678Z,96791.16
2023-04-25T03:02:02.931Z,96802.50
2023-04-25T03:04:32.685Z,96801.66
2023-04-25T03:07:00.837Z,96798.44
2023-04-25T03:09:29.020Z,96798.78
2023-04-25T03:11:57.173Z,96779.28
2023-04-25T03:14:25.243Z,96796.31
2023-04-25T03:16:53.536Z,96800.91
2023-04-25T03:19:21.776Z,96800.19
2023-04-25T03:21:51.333Z,96805.22
2023-04-25T03:24:19.533Z,96780.41
2023-04-25T03:26:47.669Z,96768.63
2023-04-25T03:29:15.852Z,96796.16
2023-04-25T03:31:44.005Z,96781.84
2023-04-25T03:34:12.219Z,96792.09
2023-04-25T03:36:41.745Z,96789.47
2023-04-25T03:39:11.495Z,96791.13
2023-04-25T03:41:39.770Z,96791.81
2023-04-25T03:44:07.991Z,96792.66
2023-04-25T03:46:36.121Z,96793.72
2023-04-25T03:49:04.287Z,96792.75
2023-04-25T03:51:32.545Z,96790.16
2023-04-25T03:54:00.650Z,96791.41
2023-04-25T03:56:30.226Z,96794.25
2023-04-25T03:58:58.363Z,96800.44
2023-04-25T04:01:26.527Z,96799.78
2023-04-25T04:03:54.821Z,96797.28
2023-04-25T04:06:23.304Z,96795.84
2023-04-25T04:08:51.429Z,96701.78
2023-04-25T04:11:19.633Z,96805.09
2023-04-25T04:13:49.278Z,96810.88
2023-04-25T04:16:17.659Z,96809.25
2023-04-25T04:18:47.155Z,96798.94
2023-04-25T04:21:16.014Z,96810.13
2023-04-25T04:23:44.169Z,96786.28
2023-04-25T04:26:14.094Z,96826.31
2023-04-25T04:28:42.210Z,96822.84
2023-04-25T04:31:12.721Z,96827.94
2023-04-25T04:33:41.251Z,96838.03
2023-04-25T04:36:09.659Z,96807.72
2023-04-25T04:38:40.050Z,96826.47
2023-04-25T04:41:10.089Z,96831.34
2023-04-25T04:43:38.550Z,96821.72
2023-04-25T04:46:06.730Z,96827.00
2023-04-25T04:48:36.361Z,96753.44
2023-04-25T04:51:04.781Z,96829.41
2023-04-25T04:53:32.843Z,96802.66
2023-04-25T04:56:01.271Z,96814.38
2023-04-25T04:58:30.965Z,96813.25
2023-04-25T05:00:59.204Z,96806.25
2023-04-25T05:03:28.475Z,96788.25
2023-04-25T05:05:58.130Z,96819.72
2023-04-25T05:08:26.277Z,96773.41
2023-04-25T05:10:54.607Z,96811.38
2023-04-25T05:13:22.805Z,96816.38
2023-04-25T05:15:51.033Z,96792.22
2023-04-25T05:18:19.815Z,96810.19
2023-04-25T05:20:49.075Z,96804.88
2023-04-25T05:23:18.787Z,96809.91
2023-04-25T05:25:47.100Z,96809.53
2023-04-25T05:28:15.717Z,96801.72
2023-04-25T05:30:43.997Z,96803.34
2023-04-25T05:33:12.303Z,96805.75
2023-04-25T05:35:40.580Z,96821.16
2023-04-25T05:38:09.170Z,96797.22
2023-04-25T05:40:39.100Z,96803.28
2023-04-25T05:43:07.296Z,96811.34
2023-04-25T05:45:35.681Z,96805.84
2023-04-25T05:48:04.127Z,96801.41
2023-04-25T05:50:32.335Z,96812.72
2023-04-25T05:53:00.519Z,96786.03
2023-04-25T05:55:30.493Z,96807.16
2023-04-25T05:58:00.151Z,96779.13
2023-04-25T06:00:28.501Z,96801.50
2023-04-25T06:02:57.165Z,96806.34
2023-04-25T06:05:26.395Z,96802.38
2023-04-25T06:07:54.598Z,96793.97
2023-04-25T06:10:23.815Z,96800.41
2023-04-25T06:12:52.022Z,96799.66
2023-04-25T06:15:28.170Z,96795.09
2023-04-25T06:17:57.564Z,96788.63
2023-04-25T06:20:25.816Z,96785.81
2023-04-25T06:22:54.207Z,96792.94
2023-04-25T06:25:22.621Z,96768.22
2023-04-25T06:27:50.785Z,96765.31
2023-04-25T06:30:23.551Z,96770.78
2023-04-25T06:32:54.175Z,96673.97
2023-04-25T06:35:23.131Z,96765.44
2023-04-25T06:37:51.397Z,96771.91
2023-04-25T06:40:19.606Z,96773.94
2023-04-25T06:42:47.792Z,96770.03
2023-04-25T06:45:16.024Z,96749.53
2023-04-25T06:47:44.249Z,96770.50
2023-04-25T06:50:13.980Z,96777.22
2023-04-25T06:52:42.128Z,96771.03
2023-04-25T06:55:11.258Z,96765.34
2023-04-25T06:57:39.426Z,96761.28
2023-04-25T07:00:10.662Z,96755.56
2023-04-25T07:02:39.016Z,96740.44
2023-04-25T07:05:07.690Z,96741.69
2023-04-25T07:07:37.245Z,96737.41
2023-04-25T07:10:06.476Z,96739.81
2023-04-25T07:12:34.618Z,96719.09
2023-04-25T07:15:06.959Z,96689.47
2023-04-25T07:17:35.970Z,96731.13
2023-04-25T07:20:04.887Z,96728.59
2023-04-25T07:22:33.143Z,96718.31
2023-04-25T07:25:03.008Z,96699.22
2023-04-25T07:27:31.185Z,96713.00
2023-04-25T07:29:59.714Z,96713.53
2023-04-25T07:32:28.132Z,96713.88
2023-04-25T07:34:56.410Z,96719.53
2023-04-25T07:37:24.558Z,96693.69
2023-04-25T07:39:52.770Z,96721.97
2023-04-25T07:42:22.428Z,96642.09
2023-04-25T07:44:52.862Z,96579.31
2023-04-25T07:47:21.481Z,96682.31
2023-04-25T07:49:49.848Z,96730.19
2023-04-25T07:52:18.046Z,96619.63
2023-04-25T07:54:46.299Z,96709.19
2023-04-25T07:57:15.124Z,96701.72
2023-04-25T07:59:44.867Z,96705.16
2023-04-25T08:02:16.854Z,96694.81
2023-04-25T08:04:48.510Z,96700.25
2023-04-25T08:07:16.830Z,96669.75
2023-04-25T08:09:44.976Z,96719.81
2023-04-25T08:12:13.113Z,96694.75
2023-04-25T08:14:41.297Z,96721.09
2023-04-25T08:17:10.820Z,96718.53
2023-04-25T08:19:38.950Z,96699.19
2023-04-25T08:22:07.170Z,96710.53
2023-04-25T08:24:36.564Z,96674.13
2023-04-25T08:27:07.866Z,96702.50
2023-04-25T08:29:36.451Z,96710.06
2023-04-25T08:32:04.642Z,96675.19
2023-04-25T08:34:34.324Z,96716.84
2023-04-25T08:37:02.597Z,96714.09
2023-04-25T08:39:30.852Z,96716.53
2023-04-25T08:41:59.295Z,96711.66
2023-04-25T08:44:28.214Z,96710.22
2023-04-25T08:46:57.942Z,96720.03
2023-04-25T08:49:27.570Z,96724.00
2023-04-25T08:52:01.587Z,96704.56
2023-04-25T08:54:35.740Z,96708.25
2023-04-25T08:57:06.371Z,96726.19
2023-04-25T08:59:36.642Z,96660.44
2023-04-25T09:02:06.042Z,96704.19
2023-04-25T09:04:34.505Z,96622.81
2023-04-25T09:07:04.118Z,96698.81
2023-04-25T09:09:32.514Z,96713.06
2023-04-25T09:12:02.699Z,96706.19
2023-04-25T09:14:31.042Z,96715.16
2023-04-25T09:17:03.729Z,96724.34
2023-04-25T09:22:07.208Z,96707.59
2023-04-25T09:24:37.785Z,96714.84
2023-04-25T09:27:07.549Z,96617.22
2023-04-25T09:29:37.402Z,96718.63
2023-04-25T09:32:18.198Z,96692.31
2023-04-25T09:34:49.492Z,96716.81
2023-04-25T09:37:24.143Z,96694.56
2023-04-25T09:39:53.742Z,96713.66
2023-04-25T09:42:25.003Z,96720.72
2023-04-25T09:44:55.242Z,96713.94
2023-04-25T09:47:24.937Z,96694.84
2023-04-25T09:49:56.215Z,96713.09
2023-04-25T09:52:26.973Z,96710.38
2023-04-25T09:54:55.205Z,96710.19
2023-04-25T09:57:24.865Z,96695.81
2023-04-25T09:59:54.684Z,96704.22
2023-04-25T10:02:24.243Z,96706.56
2023-04-25T10:04:55.907Z,96690.06
2023-04-25T10:07:29.450Z,96649.84
2023-04-25T10:10:03.018Z,96683.66
2023-04-25T10:12:32.234Z,96621.88
2023-04-25T10:15:01.499Z,96673.53
2023-04-25T10:17:30.199Z,96663.38
2023-04-25T10:19:59.134Z,96582.72
2023-04-25T10:22:34.858Z,96678.94
2023-04-25T10:25:05.175Z,96668.22
2023-04-25T10:27:34.140Z,96646.22
2023-04-25T10:30:07.694Z,96646.38
2023-04-25T10:32:36.102Z,96652.59
2023-04-25T10:35:26.234Z,96652.47
2023-04-25T10:38:06.597Z,96624.94
2023-04-25T10:40:35.591Z,96649.41
2023-04-25T10:43:38.597Z,96632.63
2023-04-25T10:46:17.271Z,96635.03
2023-04-25T10:48:51.129Z,96621.59
2023-04-25T10:51:21.818Z,96618.28
2023-04-25T10:53:59.866Z,96616.41
2023-04-25T10:56:29.714Z,96612.41
2023-04-25T10:59:09.307Z,96617.13
2023-04-25T11:01:42.277Z,96618.56
2023-04-25T11:04:23.023Z,96590.63
2023-04-25T11:07:07.120Z,96610.13
2023-04-25T11:09:38.965Z,96598.81
2023-04-25T11:12:09.813Z,96585.94
2023-04-25T11:17:12.382Z,96606.78
2023-04-25T11:19:40.843Z,96592.28
2023-04-25T11:22:09.034Z,96596.19
2023-04-25T11:24:38.803Z,96586.09
2023-04-25T11:27:08.020Z,96524.03
2023-04-25T11:29:37.324Z,96590.88
2023-04-25T11:32:05.792Z,96579.44
2023-04-25T11:34:34.907Z,96591.94
2023-04-25T11:37:04.257Z,96592.91
2023-04-25T11:39:32.963Z,96579.97
2023-04-25T11:42:03.856Z,96619.41
2023-04-25T11:44:36.019Z,96619.81
2023-04-25T11:47:04.210Z,96631.53
2023-04-25T11:49:33.277Z,96630.38
2023-04-25T11:52:01.677Z,96635.38
2023-04-25T11:54:29.986Z,96654.53
2023-04-25T11:56:58.850Z,96663.94
2023-04-25T11:59:28.905Z,96576.19
2023-04-25T12:01:58.880Z,96656.47
2023-04-25T12:04:27.734Z,96651.88
2023-04-25T12:06:57.345Z,96641.25
2023-04-25T12:09:31.493Z,96605.97
2023-04-25T12:12:03.996Z,96633.75
2023-04-25T12:14:36.069Z,96630.38
2023-04-25T12:17:09.026Z,96642.72
2023-04-25T12:19:41.344Z,96634.06
2023-04-25T12:22:22.444Z,96630.03
2023-04-25T12:24:50.810Z,96629.00
2023-04-25T12:27:20.173Z,96592.91
2023-04-25T12:29:56.228Z,96623.03
2023-04-25T12:32:24.751Z,96619.72
2023-04-25T12:34:53.140Z,96614.88
2023-04-25T12:37:21.387Z,96613.84
2023-04-25T12:39:49.571Z,96623.19
2023-04-25T12:42:17.657Z,96623.13
2023-04-25T12:44:45.939Z,96621.91
2023-04-25T12:47:16.455Z,96618.69
2023-04-25T12:49:44.638Z,96619.84
2023-04-25T12:52:12.961Z,96618.63
2023-04-25T12:54:41.377Z,96608.56
2023-04-25T12:57:10.143Z,96630.63
2023-04-25T12:59:38.409Z,96605.56
2023-04-25T13:02:06.693Z,96623.66
2023-04-25T13:04:36.624Z,96616.25
2023-04-25T13:07:05.342Z,96571.38
2023-04-25T13:09:33.751Z,96611.63
2023-04-25T13:12:02.274Z,96604.44
2023-04-25T13:14:30.595Z,96608.41
2023-04-25T13:16:58.964Z,96601.88
2023-04-25T13:19:27.500Z,96595.69
2023-04-25T13:21:57.284Z,96605.16
2023-04-25T13:24:25.810Z,96612.09
2023-04-25T13:26:54.122Z,96579.88
2023-04-25T13:29:22.606Z,96589.84
2023-04-25T13:31:50.892Z,96608.41
2023-04-25T13:34:19.117Z,96592.66
2023-04-25T13:36:47.498Z,96598.09
2023-04-25T13:39:17.261Z,96601.53
2023-04-25T13:41:45.511Z,96597.47
2023-04-25T13:44:13.730Z,96587.38
2023-04-25T13:46:47.047Z,96602.09
2023-04-25T13:49:15.945Z,96600.41
2023-04-25T13:51:44.479Z,96518.94
2023-04-25T13:54:12.771Z,96604.09
2023-04-25T13:56:43.830Z,96614.72
2023-04-25T13:59:12.443Z,96600.53
2023-04-25T14:01:40.937Z,96605.41
2023-04-25T14:04:09.552Z,96607.50
2023-04-25T14:06:37.901Z,96590.50
2023-04-25T14:09:08.283Z,96557.25
2023-04-25T14:11:36.609Z,96589.84
2023-04-25T14:14:06.319Z,96590.25
2023-04-25T14:16:34.778Z,96534.41
2023-04-25T14:19:03.919Z,96599.88
2023-04-25T14:21:33.855Z,96521.88
2023-04-25T14:24:02.003Z,96562.81
2023-04-25T14:26:30.380Z,96596.53
2023-04-25T14:28:58.652Z,96595.69
2023-04-25T14:31:28.369Z,96595.88
2023-04-25T14:33:59.100Z,96585.38
2023-04-25T14:36:28.598Z,96542.97
2023-04-25T14:38:57.173Z,96578.47
2023-04-25T14:41:26.074Z,96596.94
2023-04-25T14:43:55.101Z,96593.84
2023-04-25T14:46:24.424Z,96590.56
2023-04-25T14:48:54.476Z,96552.53
2023-04-25T14:51:22.848Z,96602.81
2023-04-25T14:53:51.909Z,96587.44
2023-04-25T14:56:21.061Z,96581.81
2023-04-25T14:58:49.567Z,96621.94
2023-04-25T15:01:17.867Z,96541.66
2023-04-25T15:03:46.717Z,96625.94
2023-04-25T15:06:16.589Z,96607.28
2023-04-25T15:08:44.922Z,96626.31
2023-04-25T15:11:13.420Z,96619.13
2023-04-25T15:13:41.808Z,96538.72
2023-04-25T15:16:10.197Z,96627.56
2023-04-25T15:18:38.383Z,96629.69
2023-04-25T15:21:07.514Z,96617.69
2023-04-25T15:23:37.642Z,96629.25
2023-04-25T15:26:06.126Z,96611.72
2023-04-25T15:28:35.415Z,96587.31
2023-04-25T15:31:03.729Z,96629.72
2023-04-25T15:33:32.368Z,96628.88
2023-04-25T15:36:00.737Z,96584.38
2023-04-25T15:38:28.951Z,96628.88
2023-04-25T15:40:58.637Z,96631.09
2023-04-25T15:43:27.014Z,96622.88
2023-04-25T15:45:55.340Z,96626.50
2023-04-25T15:48:23.777Z,96611.84
2023-04-25T15:50:52.143Z,96618.03
2023-04-25T15:53:20.332Z,96606.53
2023-04-25T15:55:48.541Z,96595.25
2023-04-25T15:58:18.230Z,96604.75
2023-04-25T16:00:49.099Z,96591.69
2023-04-25T16:03:17.493Z,96590.91
2023-04-25T16:05:45.914Z,96583.50
2023-04-25T16:08:14.248Z,96586.16
2023-04-25T16:10:43.098Z,96574.22
2023-04-25T16:13:11.393Z,96558.34
2023-04-25T16:15:41.312Z,96535.69
2023-04-25T16:18:09.789Z,96563.38
2023-04-25T16:20:38.109Z,96540.13
2023-04-25T16:23:06.293Z,96557.25
2023-04-25T16:25:34.578Z,96571.13
2023-04-25T16:28:02.903Z,96575.34
2023-04-25T16:30:31.151Z,96316.97
2023-04-25T16:33:00.761Z,96546.22
2023-04-25T16:35:30.650Z,96567.69
2023-04-25T16:37:58.796Z,96572.72
2023-04-25T16:40:27.223Z,96581.75
2023-04-25T16:42:55.472Z,96581.66
2023-04-25T16:45:24.501Z,96549.88
2023-04-25T16:47:52.792Z,96580.63
2023-04-25T16:50:22.769Z,96594.19
2023-04-25T16:52:51.403Z,96599.88
2023-04-25T16:55:19.683Z,96597.44
2023-04-25T16:57:47.956Z,96598.69
2023-04-25T17:00:18.387Z,96612.63
2023-04-25T17:02:47.393Z,96600.97
2023-04-25T17:05:15.865Z,96614.09
2023-04-25T17:07:45.647Z,96610.59
2023-04-25T17:10:14.032Z,96612.00
2023-04-25T17:12:42.447Z,96626.91
2023-04-25T17:15:11.783Z,96630.47
2023-04-25T17:17:40.203Z,96637.81
2023-04-25T17:20:10.181Z,96653.25
2023-04-25T17:22:38.910Z,96667.50
2023-04-25T17:25:10.102Z,96680.47
2023-04-25T17:27:38.444Z,96667.47
2023-04-25T17:30:08.482Z,96661.94
2023-04-25T17:32:37.155Z,96699.06
2023-04-25T17:35:06.295Z,96635.16
2023-04-25T17:37:34.699Z,96643.88
2023-04-25T17:40:05.033Z,96698.72
2023-04-25T17:42:34.842Z,96716.28
2023-04-25T17:45:03.042Z,96701.88
2023-04-25T17:47:32.166Z,96679.63
2023-04-25T17:50:00.473Z,96727.84
2023-04-25T17:52:29.452Z,96715.69
2023-04-25T17:54:57.764Z,96649.00
2023-04-25T17:57:26.546Z,96741.03
2023-04-25T17:59:58.008Z,96658.56
2023-04-25T18:02:27.176Z,96744.69
2023-04-25T18:04:56.025Z,96755.38
2023-04-25T18:07:24.532Z,96746.59
2023-04-25T18:09:53.005Z,96759.41
2023-04-25T18:12:21.608Z,96751.47
2023-04-25T18:14:50.012Z,96742.81
2023-04-25T18:17:21.051Z,96779.50
2023-04-25T18:19:51.167Z,96751.59
2023-04-25T18:22:19.754Z,96781.84
2023-04-25T18:24:48.048Z,96773.41
2023-04-25T18:27:16.441Z,96773.22
2023-04-25T18:29:45.660Z,96807.38
2023-04-25T18:32:14.356Z,96795.00
2023-04-25T18:34:46.216Z,96841.22
2023-04-25T18:37:14.470Z,96793.03
2023-04-25T18:39:42.954Z,96800.34
2023-04-25T18:42:11.186Z,96836.94
2023-04-25T18:44:41.115Z,96735.34
2023-04-25T18:47:10.253Z,96804.06
2023-04-25T18:49:38.812Z,96843.91
2023-04-25T18:52:10.849Z,96870.03
2023-04-25T18:54:39.081Z,96866.03
2023-04-25T18:57:07.318Z,96816.91
2023-04-25T18:59:35.664Z,96766.81
2023-04-25T19:02:05.452Z,96829.81
2023-04-25T19:04:34.361Z,96832.72
2023-04-25T19:07:02.748Z,96887.00
2023-04-25T19:09:32.585Z,96892.16
2023-04-25T19:12:00.857Z,96880.47
2023-04-25T19:14:29.034Z,96864.47
2023-04-25T19:16:59.341Z,96895.34
2023-04-25T19:19:28.284Z,96903.22
2023-04-25T19:21:56.729Z,96888.72
2023-04-25T19:24:24.918Z,96908.81
2023-04-25T19:26:54.537Z,96903.56
2023-04-25T19:29:22.625Z,96908.16
2023-04-25T19:31:51.160Z,96926.25
2023-04-25T19:34:19.290Z,96923.75
2023-04-25T19:36:48.976Z,96894.84
2023-04-25T19:39:17.219Z,96912.75
2023-04-25T19:41:45.414Z,96917.22
2023-04-25T19:44:15.055Z,96931.50
2023-04-25T19:46:45.888Z,96933.34
2023-04-25T19:49:14.184Z,96930.84
2023-04-25T19:51:42.603Z,96936.88
2023-04-25T19:54:10.890Z,96934.44
2023-04-25T19:56:39.472Z,96944.09
2023-04-25T19:59:07.885Z,96947.50
2023-04-25T20:01:37.561Z,96952.13
2023-04-25T20:04:06.106Z,96934.44
2023-04-25T20:06:34.269Z,96954.31
2023-04-25T20:09:04.336Z,96929.16
2023-04-25T20:11:33.578Z,96966.56
2023-04-25T20:14:01.723Z,96953.72
2023-04-25T20:16:29.938Z,96970.41
2023-04-25T20:18:59.545Z,96974.75
2023-04-25T20:21:28.923Z,96972.53
2023-04-25T20:23:58.172Z,96972.84
2023-04-25T20:26:26.437Z,96970.31
2023-04-25T20:28:55.189Z,96972.00
2023-04-25T20:31:23.704Z,96978.53
2023-04-25T20:33:52.081Z,96977.28
2023-04-25T20:36:21.671Z,96988.19
2023-04-25T20:38:50.079Z,96984.81
2023-04-25T20:41:18.520Z,96991.66
2023-04-25T20:43:47.374Z,96957.03
2023-04-25T20:46:16.821Z,96991.59
2023-04-25T20:48:45.127Z,96980.59
2023-04-25T20:51:13.628Z,96994.25
2023-04-25T20:53:43.206Z,97001.19
2023-04-25T20:56:13.002Z,96999.34
2023-04-25T20:58:41.338Z,96999.34
2023-04-25T21:01:10.128Z,97007.50
2023-04-25T21:03:38.607Z,96997.59
2023-04-25T21:06:07.633Z,96986.88
2023-04-25T21:08:35.843Z,96938.56
2023-04-25T21:11:05.481Z,96989.63
2023-04-25T21:13:33.809Z,97023.16
2023-04-25T21:16:01.931Z,97023.22
2023-04-25T21:18:32.042Z,97025.78
2023-04-25T21:21:01.341Z,97024.06
2023-04-25T21:23:29.476Z,97030.28
2023-04-25T21:25:57.717Z,97025.41
2023-04-25T21:28:27.382Z,97033.19
2023-04-25T21:30:55.729Z,97035.13
2023-04-25T21:33:23.920Z,97047.25
2023-04-25T21:35:52.066Z,97040.41
2023-04-25T21:38:20.220Z,96951.41
2023-04-25T21:40:48.389Z,97033.59
2023-04-25T21:43:16.679Z,97049.88
2023-04-25T21:46:11.077Z,97049.72
2023-04-25T21:48:34.399Z,97053.47
2023-04-25T21:51:02.529Z,97056.22
2023-04-25T21:53:31.561Z,97056.66
2023-04-25T21:55:59.701Z,97063.72
2023-04-25T21:58:27.812Z,97069.88
2023-04-25T22:00:57.565Z,97039.50
2023-04-25T22:03:25.899Z,97067.13
2023-04-25T22:05:54.211Z,97074.34
2023-04-25T22:08:22.349Z,97078.84
2023-04-25T22:10:50.532Z,97089.28
2023-04-25T22:13:18.733Z,97067.09
2023-04-25T22:15:48.775Z,97077.47
2023-04-25T22:18:19.845Z,97097.03
2023-04-25T22:20:48.124Z,97085.00
2023-04-25T22:23:17.199Z,97100.50
2023-04-25T22:25:45.413Z,97099.38
2023-04-25T22:28:14.879Z,97034.38
2023-04-25T22:30:43.157Z,97098.25
2023-04-25T22:33:11.308Z,97092.97
2023-04-25T22:35:41.049Z,97096.19
2023-04-25T22:38:09.270Z,97092.63
2023-04-25T22:40:37.767Z,97099.56
2023-04-25T22:43:06.570Z,96976.75
2023-04-25T22:45:35.959Z,97102.97
2023-04-25T22:48:04.262Z,97098.06
2023-04-25T22:50:33.170Z,97104.03
2023-04-25T22:53:04.140Z,97049.25
2023-04-25T22:55:32.429Z,97106.91
2023-04-25T22:58:00.642Z,97112.06
2023-04-25T23:00:30.434Z,97105.25
2023-04-25T23:02:58.735Z,97108.81
2023-04-25T23:05:27.533Z,97106.63
2023-04-25T23:07:56.179Z,97043.44
2023-04-25T23:10:25.793Z,97095.66
2023-04-25T23:12:54.895Z,97094.97
2023-04-25T23:15:23.240Z,97057.56
2023-04-25T23:17:51.511Z,97128.78
2023-04-25T23:20:21.169Z,97131.50
2023-04-25T23:22:49.741Z,97122.41
2023-04-25T23:25:18.469Z,97134.31
2023-04-25T23:27:48.622Z,97140.31
2023-04-25T23:30:17.331Z,97127.56
2023-04-25T23:32:46.016Z,97132.06
2023-04-25T23:35:14.826Z,97111.38
2023-04-25T23:37:43.043Z,97124.28
2023-04-25T23:40:12.855Z,97138.88
2023-04-25T23:42:42.253Z,97124.28
2023-04-25T23:45:12.655Z,97140.63
2023-04-25T23:47:40.771Z,97141.41
2023-04-25T23:50:09.984Z,97150.72
2023-04-25T23:52:38.480Z,97145.50
2023-04-25T23:55:07.560Z,97147.44
2023-04-25T23:57:35.702Z,97149.22
